Time;durP1;ratioP1;P1;durP2;ratioP2;P2;SDS_P1;SDS_P2;PMS_P1;PMS_P2;Temp;Humidity;BMP_temperature;BMP_pressure;BME280_temperature;BME280_humidity;BME280_pressure;Samples;Min_cycle;Max_cycle;Signal;HPM_P1;HPM_P2
2023/09/24 00:02:10;;;;;;;;;;;;;;;13.30;75.13;101533.02;106345;1259;72561;-83
2023/09/24 00:04:37;;;;;;;;;;;;;;;13.30;75.30;101537.27;106125;1259;124880;-82
2023/09/24 00:07:05;;;;;;;;;;;;;;;13.32;75.21;101542.80;106283;1259;60548;-82
2023/09/24 00:09:32;;;;;;;;;;;;;;;13.32;75.26;101552.84;106156;1265;124710;-82
2023/09/24 00:11:58;;;;;;;;;;;;;;;13.34;75.35;101555.02;106452;1263;65147;-83
2023/09/24 00:14:26;;;;;;;;;;;;;;;13.38;75.46;101557.77;106205;1260;72491;-82
2023/09/24 00:16:52;;;;;;;;;;;;;;;13.41;75.37;101561.54;106390;1259;125155;-82
2023/09/24 00:19:19;;;;;;;;;;;;;;;13.43;75.36;101560.17;106409;1259;60458;-82
2023/09/24 00:21:49;;;;;;;;;;;;;;;13.44;75.42;101566.01;106260;1259;124571;-82
2023/09/24 00:24:18;;;;;;;;;;;;;;;13.45;75.33;101567.29;106348;1263;66279;-81
2023/09/24 00:26:45;;;;;;;;;;;;;;;13.46;75.36;101567.84;106316;1265;71434;-81
2023/09/24 00:29:12;;;;;;;;;;;;;;;13.47;75.37;101568.73;106131;1259;124547;-82
2023/09/24 00:31:39;;;;;;;;;;;;;;;13.47;75.34;101570.52;106157;1259;60454;-81
2023/09/24 00:34:05;;;;;;;;;;;;;;;13.45;75.34;101574.70;106246;1261;125722;-81
2023/09/24 00:36:33;;;;;;;;;;;;;;;13.45;75.31;101571.33;106297;1260;66262;-82
2023/09/24 00:39:00;;;;;;;;;;;;;;;13.45;75.42;101570.98;105996;1265;124775;-81
2023/09/24 00:41:27;;;;;;;;;;;;;;;13.47;75.44;101571.39;106173;1262;60472;-81
2023/09/24 00:43:54;;;;;;;;;;;;;;;13.46;75.44;101570.49;106378;1259;60372;-82
2023/09/24 00:46:23;;;;;;;;;;;;;;;13.46;75.45;101576.83;106262;1259;124555;-82
2023/09/24 00:48:50;;;;;;;;;;;;;;;13.46;75.35;101582.99;106380;1259;65665;-83
2023/09/24 00:51:18;;;;;;;;;;;;;;;13.45;75.41;101584.21;106211;1259;124929;-81
2023/09/24 00:53:48;;;;;;;;;;;;;;;13.44;75.40;101583.48;106387;1260;60494;-82
2023/09/24 00:56:15;;;;;;;;;;;;;;;13.44;75.36;101584.88;106268;1260;60474;-82
2023/09/24 00:58:42;;;;;;;;;;;;;;;13.41;75.36;101586.95;106438;1259;125741;-81
2023/09/24 01:01:09;;;;;;;;;;;;;;;13.40;75.41;101586.89;106390;1259;64663;-81
2023/09/24 01:03:40;;;;;;;;;;;;;;;13.37;75.38;101590.89;106368;1264;124906;-81
2023/09/24 01:06:07;;;;;;;;;;;;;;;13.35;75.50;101592.06;106223;1259;60571;-82
2023/09/24 01:08:33;;;;;;;;;;;;;;;13.34;75.49;101602.95;106347;1262;60550;-82
2023/09/24 01:11:01;;;;;;;;;;;;;;;13.33;75.50;101604.16;106178;1259;125232;-82
2023/09/24 01:13:38;;;;;;;;;;;;;;;13.31;75.50;101605.52;106293;1265;66024;-82
2023/09/24 01:16:08;;;;;;;;;;;;;;;13.29;75.60;101609.33;108732;1259;124708;-82
2023/09/24 01:18:38;;;;;;;;;;;;;;;13.28;75.63;101604.86;107254;1261;60548;-82
2023/09/24 01:21:07;;;;;;;;;;;;;;;13.26;75.69;101612.23;106328;1262;124739;-82
2023/09/24 01:23:37;;;;;;;;;;;;;;;13.25;75.75;101613.27;106407;1263;74024;-82
2023/09/24 01:26:03;;;;;;;;;;;;;;;13.24;75.74;101614.27;106316;1260;64978;-82
2023/09/24 01:28:30;;;;;;;;;;;;;;;13.21;75.73;101614.75;106263;1260;124996;-82
2023/09/24 01:30:57;;;;;;;;;;;;;;;13.19;75.79;101616.28;106327;1261;60458;-81
2023/09/24 01:33:24;;;;;;;;;;;;;;;13.18;75.84;101621.70;106298;1260;124759;-83
2023/09/24 01:35:51;;;;;;;;;;;;;;;13.16;75.85;101624.46;106268;1259;73513;-82
2023/09/24 01:38:17;;;;;;;;;;;;;;;13.13;76.02;101626.48;106256;1259;66263;-82
2023/09/24 01:40:44;;;;;;;;;;;;;;;13.10;75.99;101626.59;106294;1264;125047;-82
2023/09/24 01:43:14;;;;;;;;;;;;;;;13.08;76.04;101627.21;106528;1264;60496;-82
2023/09/24 01:45:40;;;;;;;;;;;;;;;13.07;76.12;101626.83;106108;1261;124993;-82
2023/09/24 01:48:07;;;;;;;;;;;;;;;13.05;76.28;101625.38;106390;1260;73732;-83
2023/09/24 01:50:35;;;;;;;;;;;;;;;13.04;76.17;101631.87;106396;1259;66302;-82
2023/09/24 01:53:02;;;;;;;;;;;;;;;13.02;76.30;101630.41;106203;1259;124797;-82
2023/09/24 01:55:28;;;;;;;;;;;;;;;13.01;76.36;101631.61;106410;1259;58532;-82
2023/09/24 01:57:55;;;;;;;;;;;;;;;12.99;76.23;101631.92;106297;1261;124025;-82
2023/09/24 02:00:25;;;;;;;;;;;;;;;12.98;76.32;101636.46;106377;1260;74437;-82
2023/09/24 02:02:54;;;;;;;;;;;;;;;12.94;76.35;101632.13;106373;1262;66434;-82
2023/09/24 02:05:20;;;;;;;;;;;;;;;12.91;76.43;101632.36;106193;1265;123958;-82
2023/09/24 02:07:49;;;;;;;;;;;;;;;12.88;76.48;101631.91;106476;1260;60454;-82
2023/09/24 02:10:18;;;;;;;;;;;;;;;12.84;76.57;101630.59;106432;1259;124000;-82
2023/09/24 02:12:45;;;;;;;;;;;;;;;12.81;76.59;101627.34;106927;1259;73438;-82
2023/09/24 02:15:17;;;;;;;;;;;;;;;12.78;76.69;101631.11;106314;1259;124040;-82
2023/09/24 02:17:45;;;;;;;;;;;;;;;12.76;76.88;101634.91;106418;1260;72733;-82
2023/09/24 02:20:25;;;;;;;;;;;;;;;12.74;76.81;101636.61;106413;1259;60463;-82
2023/09/24 02:22:52;;;;;;;;;;;;;;;12.70;76.86;101642.32;106331;1259;125556;-82
2023/09/24 02:25:19;;;;;;;;;;;;;;;12.67;76.92;101644.16;106868;1259;75045;-82
2023/09/24 02:27:48;;;;;;;;;;;;;;;12.63;76.93;101645.80;106177;1260;124939;-82
2023/09/24 02:30:15;;;;;;;;;;;;;;;12.62;77.12;101645.07;106550;1259;72715;-81
2023/09/24 02:32:42;;;;;;;;;;;;;;;12.60;77.12;101642.91;106404;1259;61369;-82
2023/09/24 02:35:10;;;;;;;;;;;;;;;12.59;77.21;101640.40;106331;1260;124698;-82
2023/09/24 02:37:39;;;;;;;;;;;;;;;12.57;77.24;101643.50;106311;1261;75867;-82
2023/09/24 02:40:14;;;;;;;;;;;;;;;12.55;77.24;101648.55;106243;1262;124892;-82
2023/09/24 02:42:41;;;;;;;;;;;;;;;12.53;77.33;101646.73;106079;1267;72907;-82
2023/09/24 02:45:08;;;;;;;;;;;;;;;12.52;77.30;101651.27;106214;1260;125844;-81
2023/09/24 02:47:36;;;;;;;;;;;;;;;12.51;77.42;101654.41;106288;1260;61381;-82
2023/09/24 02:50:08;;;;;;;;;;;;;;;12.50;77.46;101658.41;106866;1260;74731;-82
2023/09/24 02:52:35;;;;;;;;;;;;;;;12.51;77.59;101662.31;106216;1265;125034;-82
2023/09/24 02:55:04;;;;;;;;;;;;;;;12.53;77.79;101664.50;106145;1260;72477;-82
2023/09/24 02:57:30;;;;;;;;;;;;;;;12.59;77.79;101670.85;107656;1260;124954;-83
2023/09/24 03:00:00;;;;;;;;;;;;;;;12.66;77.85;101674.59;106317;1263;61449;-82
2023/09/24 03:02:31;;;;;;;;;;;;;;;12.72;77.78;101675.65;106237;1260;74558;-82
2023/09/24 03:04:59;;;;;;;;;;;;;;;12.76;77.65;101675.08;106201;1260;124990;-82
2023/09/24 03:07:25;;;;;;;;;;;;;;;12.76;77.60;101676.32;106328;1263;71398;-82
2023/09/24 03:09:53;;;;;;;;;;;;;;;12.77;77.51;101681.48;106123;1263;124819;-83
2023/09/24 03:12:20;;;;;;;;;;;;;;;12.77;77.62;101683.41;106233;1264;61309;-82
2023/09/24 03:14:46;;;;;;;;;;;;;;;12.80;77.53;101689.83;106375;1264;73199;-81
2023/09/24 03:17:13;;;;;;;;;;;;;;;12.81;77.54;101697.42;106361;1260;124571;-81
2023/09/24 03:19:39;;;;;;;;;;;;;;;12.81;77.58;101701.49;106355;1263;70777;-81
2023/09/24 03:22:06;;;;;;;;;;;;;;;12.80;77.43;101711.68;106176;1265;125188;-81
2023/09/24 03:24:32;;;;;;;;;;;;;;;12.81;77.51;101713.98;106447;1264;61267;-81
2023/09/24 03:26:59;;;;;;;;;;;;;;;12.80;77.44;101715.17;106431;1259;125016;-81
2023/09/24 03:29:25;;;;;;;;;;;;;;;12.79;77.33;101715.33;106480;1264;67526;-81
2023/09/24 03:31:52;;;;;;;;;;;;;;;12.78;77.47;101715.64;106335;1261;61397;-81
2023/09/24 03:34:18;;;;;;;;;;;;;;;12.76;77.35;101716.29;106357;1264;124833;-81
2023/09/24 03:36:45;;;;;;;;;;;;;;;12.75;77.39;101724.90;106371;1262;61318;-81
2023/09/24 03:39:12;;;;;;;;;;;;;;;12.74;77.48;101730.84;106271;1262;125046;-81
2023/09/24 03:41:39;;;;;;;;;;;;;;;12.72;77.48;101742.05;106525;1262;66089;-81
2023/09/24 03:44:05;;;;;;;;;;;;;;;12.71;77.58;101744.14;106472;1261;72402;-81
2023/09/24 03:46:32;;;;;;;;;;;;;;;12.74;77.83;101754.44;106335;1259;125027;-81
2023/09/24 03:48:59;;;;;;;;;;;;;;;12.77;77.83;101758.60;106204;1260;61363;-82
2023/09/24 03:51:25;;;;;;;;;;;;;;;12.81;77.84;101765.23;106114;1264;125263;-81
2023/09/24 03:53:52;;;;;;;;;;;;;;;12.85;77.89;101765.55;106498;1259;66279;-81
2023/09/24 03:56:19;;;;;;;;;;;;;;;12.90;77.90;101765.52;106348;1260;71720;-81
2023/09/24 03:58:45;;;;;;;;;;;;;;;12.94;77.73;101767.74;106211;1260;124827;-81
2023/09/24 04:01:12;;;;;;;;;;;;;;;12.96;77.78;101776.80;106324;1261;59279;-81
2023/09/24 04:03:39;;;;;;;;;;;;;;;12.98;77.72;101787.45;106288;1260;124960;-81
2023/09/24 04:06:12;;;;;;;;;;;;;;;12.99;77.54;101791.54;106396;1264;66278;-81
2023/09/24 04:08:38;;;;;;;;;;;;;;;12.99;77.55;101799.28;106240;1264;71704;-82
2023/09/24 04:11:06;;;;;;;;;;;;;;;13.01;77.61;101799.88;106162;1259;125455;-82
2023/09/24 04:13:34;;;;;;;;;;;;;;;13.04;77.62;101801.20;108852;1259;59908;-82
2023/09/24 04:16:13;;;;;;;;;;;;;;;13.05;77.65;101801.60;106359;1264;124810;-82
2023/09/24 04:18:41;;;;;;;;;;;;;;;13.06;77.55;101808.66;106306;1263;66235;-82
2023/09/24 04:21:15;;;;;;;;;;;;;;;13.06;77.46;101814.64;106314;1260;125043;-81
2023/09/24 04:23:42;;;;;;;;;;;;;;;13.04;77.45;101819.52;106374;1264;61257;-82
2023/09/24 04:26:20;;;;;;;;;;;;;;;13.02;77.48;101820.53;106261;1259;59903;-82
2023/09/24 04:28:47;;;;;;;;;;;;;;;12.99;77.40;101824.83;106292;1259;125021;-82
2023/09/24 04:31:14;;;;;;;;;;;;;;;12.95;77.45;101825.59;106445;1265;66103;-82
2023/09/24 04:33:41;;;;;;;;;;;;;;;12.93;77.56;101825.88;106373;1259;125272;-82
2023/09/24 04:36:09;;;;;;;;;;;;;;;12.94;77.65;101829.63;106284;1260;59621;-82
2023/09/24 04:38:36;;;;;;;;;;;;;;;12.95;77.67;101832.81;106432;1264;61353;-82
2023/09/24 04:41:03;;;;;;;;;;;;;;;12.99;77.82;101837.69;106306;1260;126695;-82
2023/09/24 04:43:30;;;;;;;;;;;;;;;13.03;77.88;101842.23;106332;1259;65555;-82
2023/09/24 04:45:56;;;;;;;;;;;;;;;13.05;77.70;101848.99;106161;1260;124817;-82
2023/09/24 04:48:23;;;;;;;;;;;;;;;13.04;77.68;101851.25;106337;1263;59654;-82
2023/09/24 04:50:54;;;;;;;;;;;;;;;13.05;77.54;101857.64;106361;1263;61137;-82
2023/09/24 04:53:20;;;;;;;;;;;;;;;13.05;77.55;101859.04;106386;1261;124737;-82
2023/09/24 04:55:47;;;;;;;;;;;;;;;13.06;77.61;101864.89;106401;1263;66123;-82
2023/09/24 04:58:13;;;;;;;;;;;;;;;13.09;77.58;101868.48;106261;1264;124800;-82
2023/09/24 05:00:41;;;;;;;;;;;;;;;13.11;77.47;101867.88;106336;1264;61257;-82
2023/09/24 05:03:08;;;;;;;;;;;;;;;13.13;77.52;101867.04;106257;1262;125439;-82
2023/09/24 05:05:34;;;;;;;;;;;;;;;13.16;77.49;101877.36;106474;1273;73624;-82
2023/09/24 05:08:02;;;;;;;;;;;;;;;13.19;77.48;101880.98;106240;1260;66287;-82
2023/09/24 05:10:29;;;;;;;;;;;;;;;13.20;77.34;101886.85;106076;1261;124652;-82
2023/09/24 05:12:55;;;;;;;;;;;;;;;13.20;77.27;101891.96;106439;1263;61305;-82
2023/09/24 05:15:22;;;;;;;;;;;;;;;13.21;77.21;101888.80;106299;1259;125033;-82
2023/09/24 05:17:48;;;;;;;;;;;;;;;13.22;77.18;101892.36;106154;1260;74420;-82
2023/09/24 05:20:15;;;;;;;;;;;;;;;13.21;77.23;101899.05;106262;1261;66290;-82
2023/09/24 05:22:42;;;;;;;;;;;;;;;13.23;77.34;101897.86;106231;1261;124782;-82
2023/09/24 05:25:09;;;;;;;;;;;;;;;13.22;77.14;101899.77;106370;1261;61255;-82
2023/09/24 05:27:36;;;;;;;;;;;;;;;13.22;77.13;101901.55;106351;1263;125159;-82
2023/09/24 05:30:03;;;;;;;;;;;;;;;13.22;77.18;101908.60;106363;1262;73402;-82
2023/09/24 05:32:29;;;;;;;;;;;;;;;13.25;77.16;101910.63;106384;1266;66174;-82
2023/09/24 05:34:56;;;;;;;;;;;;;;;13.30;77.28;101910.10;106128;1263;125890;-81
2023/09/24 05:37:22;;;;;;;;;;;;;;;13.37;77.20;101914.41;106358;1260;61375;-82
2023/09/24 05:39:49;;;;;;;;;;;;;;;13.43;77.08;101916.69;106262;1261;124839;-82
2023/09/24 05:42:16;;;;;;;;;;;;;;;13.49;77.13;101916.20;106163;1260;75940;-82
2023/09/24 05:44:43;;;;;;;;;;;;;;;13.55;77.09;101916.04;106253;1263;67096;-82
2023/09/24 05:47:13;;;;;;;;;;;;;;;13.57;76.85;101918.17;106218;1264;125450;-81
2023/09/24 05:49:40;;;;;;;;;;;;;;;13.57;76.67;101918.55;106479;1263;61188;-81
2023/09/24 05:52:06;;;;;;;;;;;;;;;13.54;76.50;101924.48;106263;1261;125457;-81
2023/09/24 05:54:33;;;;;;;;;;;;;;;13.53;76.49;101931.98;106341;1265;75287;-81
2023/09/24 05:56:59;;;;;;;;;;;;;;;13.55;76.61;101936.30;106252;1262;125291;-83
2023/09/24 05:59:26;;;;;;;;;;;;;;;13.62;76.81;101935.64;106241;1261;72451;-83
2023/09/24 06:01:53;;;;;;;;;;;;;;;13.70;76.81;101935.36;106136;1264;61302;-82
2023/09/24 06:04:19;;;;;;;;;;;;;;;13.81;76.89;101937.81;106183;1259;124829;-83
2023/09/24 06:06:47;;;;;;;;;;;;;;;13.90;76.53;101940.92;106422;1259;74760;-83
2023/09/24 06:09:16;;;;;;;;;;;;;;;13.97;76.46;101943.23;106307;1264;125734;-83
2023/09/24 06:11:45;;;;;;;;;;;;;;;14.02;76.29;101947.27;106380;1259;71154;-83
2023/09/24 06:14:12;;;;;;;;;;;;;;;14.08;76.35;101948.67;106398;1264;61129;-83
2023/09/24 06:16:39;;;;;;;;;;;;;;;14.13;76.17;101952.91;106092;1261;124994;-83
2023/09/24 06:19:05;;;;;;;;;;;;;;;14.17;76.07;101950.89;106351;1264;74433;-83
2023/09/24 06:21:32;;;;;;;;;;;;;;;14.23;76.08;101957.05;106352;1260;125203;-82
2023/09/24 06:23:58;;;;;;;;;;;;;;;14.31;76.16;101958.88;106347;1261;71376;-81
2023/09/24 06:26:25;;;;;;;;;;;;;;;14.41;76.13;101961.29;106179;1263;61256;-82
2023/09/24 06:28:51;;;;;;;;;;;;;;;14.47;75.98;101958.64;106130;1261;124747;-83
2023/09/24 06:31:20;;;;;;;;;;;;;;;14.52;75.90;101962.68;106373;1259;74801;-82
2023/09/24 06:33:46;;;;;;;;;;;;;;;14.56;75.81;101969.88;108317;1261;124668;-81
2023/09/24 06:36:13;;;;;;;;;;;;;;;14.63;75.91;101978.92;106233;1260;71799;-82
2023/09/24 06:38:39;;;;;;;;;;;;;;;14.70;75.98;101981.75;106156;1260;59293;-82
2023/09/24 06:41:06;;;;;;;;;;;;;;;14.78;75.96;101985.33;106227;1260;124811;-81
2023/09/24 06:43:33;;;;;;;;;;;;;;;14.88;76.08;101987.73;106329;1259;73548;-81
2023/09/24 06:46:04;;;;;;;;;;;;;;;15.00;76.11;101993.88;106149;1261;125027;-82
2023/09/24 06:48:31;;;;;;;;;;;;;;;15.10;75.98;101995.20;106250;1264;71852;-82
2023/09/24 06:51:04;;;;;;;;;;;;;;;15.20;75.93;102001.46;106181;1260;124831;-82
2023/09/24 06:53:31;;;;;;;;;;;;;;;15.29;75.94;101999.42;106868;1264;61182;-82
2023/09/24 06:55:57;;;;;;;;;;;;;;;15.42;76.07;101995.48;106350;1261;74000;-82
2023/09/24 06:58:24;;;;;;;;;;;;;;;15.56;76.02;101995.66;106280;1263;124694;-82
2023/09/24 07:00:50;;;;;;;;;;;;;;;15.69;75.90;102005.54;106331;1261;61346;-82
2023/09/24 07:03:17;;;;;;;;;;;;;;;15.81;75.88;102009.20;106347;1260;124297;-83
2023/09/24 07:05:45;;;;;;;;;;;;;;;15.93;75.81;102005.05;106473;1261;61292;-80
2023/09/24 07:08:12;;;;;;;;;;;;;;;16.03;75.71;102004.21;106447;1261;74683;-82
2023/09/24 07:10:40;;;;;;;;;;;;;;;16.11;75.63;101996.96;106261;1262;124588;-82
2023/09/24 07:13:06;;;;;;;;;;;;;;;16.20;75.50;102006.36;106212;1267;72747;-82
2023/09/24 07:15:33;;;;;;;;;;;;;;;16.28;75.46;102011.67;106290;1263;125094;-82
2023/09/24 07:18:00;;;;;;;;;;;;;;;16.37;75.37;102016.30;106232;1264;61459;-83
2023/09/24 07:20:26;;;;;;;;;;;;;;;16.46;75.26;102023.58;106319;1260;73365;-82
2023/09/24 07:22:53;;;;;;;;;;;;;;;16.56;75.11;102033.88;106230;1263;125382;-82
2023/09/24 07:25:19;;;;;;;;;;;;;;;16.62;74.94;102038.09;106405;1261;72374;-82
2023/09/24 07:27:47;;;;;;;;;;;;;;;16.70;74.78;102038.78;106189;1260;125022;-82
2023/09/24 07:30:14;;;;;;;;;;;;;;;16.79;74.70;102032.58;106434;1260;61283;-82
2023/09/24 07:32:41;;;;;;;;;;;;;;;16.87;74.45;102035.45;106186;1261;74651;-82
2023/09/24 07:35:09;;;;;;;;;;;;;;;16.97;74.27;102042.89;106230;1261;125226;-82
2023/09/24 07:37:36;;;;;;;;;;;;;;;17.04;74.07;102053.34;106188;1260;71231;-82
2023/09/24 07:40:05;;;;;;;;;;;;;;;17.13;73.98;102061.48;106285;1261;125108;-81
2023/09/24 07:42:31;;;;;;;;;;;;;;;17.22;73.62;102060.20;106325;1259;59210;-83
2023/09/24 07:44:58;;;;;;;;;;;;;;;17.27;73.42;102053.40;106110;1259;124906;-82
2023/09/24 07:47:25;;;;;;;;;;;;;;;17.34;73.27;102059.88;106277;1261;69712;-82
2023/09/24 07:49:51;;;;;;;;;;;;;;;17.40;73.27;102062.15;106278;1261;73296;-83
2023/09/24 07:52:18;;;;;;;;;;;;;;;17.50;73.22;102060.70;106179;1260;124920;-82
2023/09/24 07:54:45;;;;;;;;;;;;;;;17.60;73.07;102062.83;106339;1261;61404;-81
2023/09/24 07:57:12;;;;;;;;;;;;;;;17.68;72.86;102065.98;106304;1263;124617;-81
2023/09/24 07:59:38;;;;;;;;;;;;;;;17.76;72.61;102070.73;106519;1261;65161;-81
2023/09/24 08:02:05;;;;;;;;;;;;;;;17.84;72.57;102081.91;106425;1261;71842;-82
2023/09/24 08:04:32;;;;;;;;;;;;;;;17.93;72.43;102088.27;106206;1260;124530;-81
2023/09/24 08:06:58;;;;;;;;;;;;;;;18.01;72.24;102090.89;106432;1260;61277;-82
2023/09/24 08:09:25;;;;;;;;;;;;;;;18.06;71.96;102092.73;106366;1260;124416;-82
2023/09/24 08:11:51;;;;;;;;;;;;;;;18.11;71.78;102095.11;106397;1260;66183;-82
2023/09/24 08:14:18;;;;;;;;;;;;;;;18.11;71.57;102096.36;106311;1260;72533;-82
2023/09/24 08:16:45;;;;;;;;;;;;;;;18.17;71.30;102099.30;106260;1263;124265;-82
2023/09/24 08:19:11;;;;;;;;;;;;;;;18.20;71.06;102106.44;106440;1262;61432;-83
2023/09/24 08:21:38;;;;;;;;;;;;;;;18.19;70.70;102114.98;106268;1258;124656;-83
2023/09/24 08:24:05;;;;;;;;;;;;;;;18.15;70.29;102112.42;106327;1263;66634;-83
2023/09/24 08:26:33;;;;;;;;;;;;;;;18.13;70.17;102113.09;106116;1263;71366;-83
2023/09/24 08:29:02;;;;;;;;;;;;;;;18.19;70.28;102113.71;105981;1262;125949;-82
2023/09/24 08:31:29;;;;;;;;;;;;;;;18.27;70.17;102116.52;106234;1260;61273;-83
2023/09/24 08:33:55;;;;;;;;;;;;;;;18.33;69.84;102117.11;106293;1261;126400;-82
2023/09/24 08:36:22;;;;;;;;;;;;;;;18.36;69.75;102121.27;106570;1259;61298;-83
2023/09/24 08:38:48;;;;;;;;;;;;;;;18.41;69.61;102120.62;106428;1263;71175;-84
2023/09/24 08:41:15;;;;;;;;;;;;;;;18.50;69.63;102123.77;106416;1260;124481;-84
2023/09/24 08:43:42;;;;;;;;;;;;;;;18.58;69.35;102125.13;106538;1261;61338;-82
2023/09/24 08:46:09;;;;;;;;;;;;;;;18.63;69.13;102133.38;106210;1260;124499;-82
2023/09/24 08:48:36;;;;;;;;;;;;;;;18.66;68.80;102134.84;106252;1261;65114;-82
2023/09/24 08:51:06;;;;;;;;;;;;;;;18.69;68.70;102132.21;106149;1266;124284;-82
2023/09/24 08:53:33;;;;;;;;;;;;;;;18.78;68.67;102137.14;106378;1260;59707;-84
2023/09/24 08:55:59;;;;;;;;;;;;;;;18.87;68.47;102145.65;106413;1263;61157;-82
2023/09/24 08:58:26;;;;;;;;;;;;;;;18.91;67.93;102150.50;106213;1260;124170;-82
2023/09/24 09:00:53;;;;;;;;;;;;;;;18.85;67.46;102152.73;106308;1261;65601;-84
2023/09/24 09:03:19;;;;;;;;;;;;;;;18.80;67.44;102154.44;106341;1261;124190;-82
2023/09/24 09:05:47;;;;;;;;;;;;;;;18.79;67.37;102156.20;106407;1260;61193;-82
2023/09/24 09:08:13;;;;;;;;;;;;;;;18.83;67.38;102158.77;106374;1261;59738;-82
2023/09/24 09:10:40;;;;;;;;;;;;;;;18.86;67.25;102162.35;106088;1267;124175;-82
2023/09/24 09:13:08;;;;;;;;;;;;;;;18.88;67.05;102161.48;106458;1261;66443;-83
2023/09/24 09:15:35;;;;;;;;;;;;;;;18.96;67.18;102161.94;106288;1263;124282;-83
2023/09/24 09:18:02;;;;;;;;;;;;;;;19.07;67.27;102161.91;106091;1261;213214;-83
2023/09/24 09:20:42;;;;;;;;;;;;;;;19.20;67.15;102161.54;106461;1261;61386;-84
2023/09/24 09:23:18;;;;;;;;;;;;;;;19.32;66.86;102163.98;106155;1267;125231;-83
2023/09/24 09:25:49;;;;;;;;;;;;;;;19.41;66.78;102161.06;106072;1259;66382;-83
2023/09/24 09:28:19;;;;;;;;;;;;;;;19.51;66.55;102168.11;107285;1258;124090;-83
2023/09/24 09:31:02;;;;;;;;;;;;;;;19.56;66.18;102171.55;106183;1259;61180;-83
2023/09/24 09:33:32;;;;;;;;;;;;;;;19.63;65.97;102170.02;106347;1263;124920;-83
2023/09/24 09:35:59;;;;;;;;;;;;;;;19.69;65.75;102171.33;106251;1258;72596;-82
2023/09/24 09:38:26;;;;;;;;;;;;;;;19.74;65.60;102170.33;106480;1260;66652;-82
2023/09/24 09:40:55;;;;;;;;;;;;;;;19.82;65.33;102169.34;106199;1265;125476;-82
2023/09/24 09:43:22;;;;;;;;;;;;;;;19.82;64.94;102170.75;106496;1259;59376;-82
2023/09/24 09:45:50;;;;;;;;;;;;;;;19.98;65.36;102173.05;107154;1263;124280;-82
2023/09/24 09:48:17;;;;;;;;;;;;;;;20.25;65.16;102172.91;106497;1259;74706;-82
2023/09/24 09:50:43;;;;;;;;;;;;;;;20.39;64.45;102174.80;106351;1259;66157;-83
2023/09/24 09:53:10;;;;;;;;;;;;;;;20.43;64.05;102183.03;106154;1259;124741;-83
2023/09/24 09:55:38;;;;;;;;;;;;;;;20.49;63.81;102182.36;106397;1261;61449;-83
2023/09/24 09:58:04;;;;;;;;;;;;;;;20.50;63.51;102188.96;106317;1259;124236;-83
2023/09/24 10:00:31;;;;;;;;;;;;;;;20.36;62.56;102192.97;106388;1260;74548;-83
2023/09/24 10:02:57;;;;;;;;;;;;;;;20.11;62.30;102194.90;106260;1259;124352;-83
2023/09/24 10:05:24;;;;;;;;;;;;;;;19.97;62.34;102203.67;106290;1259;73134;-83
2023/09/24 10:07:50;;;;;;;;;;;;;;;19.89;62.38;102204.50;106373;1259;61352;-83
2023/09/24 10:10:29;;;;;;;;;;;;;;;19.80;61.96;102208.34;106319;1263;125041;-82
2023/09/24 10:12:55;;;;;;;;;;;;;;;19.76;62.16;102211.69;106367;1263;74415;-82
2023/09/24 10:15:26;;;;;;;;;;;;;;;19.84;62.25;102212.11;106461;1260;124366;-82
2023/09/24 10:18:14;;;;;;;;;;;;;;;19.83;62.04;102207.83;106247;1266;72856;-82
2023/09/24 10:20:50;;;;;;;;;;;;;;;19.76;61.79;102214.89;106617;1260;61263;-83
2023/09/24 10:23:29;;;;;;;;;;;;;;;19.71;61.45;102213.21;106345;1259;124259;-83
2023/09/24 10:26:00;;;;;;;;;;;;;;;19.68;61.67;102209.23;106474;1260;74873;-83
2023/09/24 10:28:46;;;;;;;;;;;;;;;19.72;61.79;102208.41;106328;1259;124101;-82
2023/09/24 10:31:12;;;;;;;;;;;;;;;19.76;61.82;102207.95;106436;1258;71891;-84
2023/09/24 10:33:51;;;;;;;;;;;;;;;19.82;61.85;102209.41;106301;1263;124321;-84
2023/09/24 10:36:30;;;;;;;;;;;;;;;19.93;61.92;102212.02;106389;1265;61341;-84
2023/09/24 10:39:07;;;;;;;;;;;;;;;20.07;61.74;102215.71;106396;1259;74774;-83
2023/09/24 10:41:34;;;;;;;;;;;;;;;20.23;61.51;102212.11;106401;1261;65098;-83
2023/09/24 10:44:20;;;;;;;;;;;;;;;20.36;61.37;102214.89;106426;1261;72333;-83
2023/09/24 10:46:46;;;;;;;;;;;;;;;20.45;60.90;102225.12;106412;1260;124124;-83
2023/09/24 10:49:24;;;;;;;;;;;;;;;20.47;60.14;102228.17;106338;1259;61212;-83
2023/09/24 10:52:00;;;;;;;;;;;;;;;20.46;59.78;102231.54;106359;1260;124072;-83
2023/09/24 10:54:27;;;;;;;;;;;;;;;20.47;59.75;102232.81;106362;1261;65552;-84
2023/09/24 10:56:53;;;;;;;;;;;;;;;20.51;59.51;102234.61;106247;1259;72676;-84
2023/09/24 10:59:33;;;;;;;;;;;;;;;20.54;59.66;102241.42;106413;1263;124031;-82
2023/09/24 11:02:15;;;;;;;;;;;;;;;20.56;59.28;102245.73;106557;1259;61245;-82
2023/09/24 11:04:42;;;;;;;;;;;;;;;20.39;58.91;102246.12;106347;1259;124487;-83
2023/09/24 11:07:09;;;;;;;;;;;;;;;20.22;58.99;102243.48;106316;1259;66315;-83
2023/09/24 11:09:35;;;;;;;;;;;;;;;20.09;59.27;102239.79;106087;1259;124290;-83
2023/09/24 11:12:08;;;;;;;;;;;;;;;20.05;59.36;102241.89;106254;1259;60974;-83
2023/09/24 11:14:35;;;;;;;;;;;;;;;20.05;59.58;102245.63;106444;1258;61373;-83
2023/09/24 11:17:01;;;;;;;;;;;;;;;20.05;59.57;102247.59;106295;1259;124241;-82
2023/09/24 11:19:48;;;;;;;;;;;;;;;19.97;59.29;102244.85;106317;1263;65091;-83
2023/09/24 11:22:19;;;;;;;;;;;;;;;19.90;59.25;102249.95;106369;1259;124546;-83
2023/09/24 11:25:06;;;;;;;;;;;;;;;19.81;59.12;102249.67;106420;1259;61242;-83
2023/09/24 11:27:53;;;;;;;;;;;;;;;19.73;59.30;102252.42;106387;1260;124505;-83
2023/09/24 11:30:20;;;;;;;;;;;;;;;19.61;59.20;102251.38;106364;1264;74718;-83
2023/09/24 11:32:50;;;;;;;;;;;;;;;19.56;59.34;102252.39;106305;1259;66249;-83
2023/09/24 11:35:17;;;;;;;;;;;;;;;19.54;59.22;102259.66;106137;1259;124662;-84
2023/09/24 11:37:50;;;;;;;;;;;;;;;19.47;58.92;102262.42;106029;1261;61301;-83
2023/09/24 11:40:20;;;;;;;;;;;;;;;19.37;58.95;102262.66;106122;1258;124695;-84
2023/09/24 11:42:53;;;;;;;;;;;;;;;19.35;59.23;102261.75;106317;1259;74889;-82
2023/09/24 11:45:38;;;;;;;;;;;;;;;19.40;59.22;102263.05;106249;1259;125444;-83
2023/09/24 11:48:06;;;;;;;;;;;;;;;19.42;58.84;102266.63;106406;1260;73145;-83
2023/09/24 11:50:32;;;;;;;;;;;;;;;19.39;58.75;102264.11;106377;1258;61241;-83
2023/09/24 11:53:01;;;;;;;;;;;;;;;19.34;58.47;102266.71;106225;1259;124036;-82
2023/09/24 11:55:28;;;;;;;;;;;;;;;19.30;58.46;102269.86;106288;1265;74548;-83
2023/09/24 11:57:54;;;;;;;;;;;;;;;19.22;58.51;102269.23;106382;1263;124449;-82
2023/09/24 12:00:21;;;;;;;;;;;;;;;19.17;58.56;102271.30;106403;1261;72959;-82
2023/09/24 12:02:48;;;;;;;;;;;;;;;19.22;58.90;102272.24;106389;1263;61375;-83
2023/09/24 12:05:15;;;;;;;;;;;;;;;19.33;58.90;102274.00;106206;1264;127311;-82
2023/09/24 12:07:42;;;;;;;;;;;;;;;19.51;59.05;102276.54;106357;1259;74695;-83
2023/09/24 12:10:09;;;;;;;;;;;;;;;19.73;58.90;102277.88;106397;1259;124092;-83
2023/09/24 12:12:35;;;;;;;;;;;;;;;20.01;58.76;102281.23;106502;1261;72745;-82
2023/09/24 12:15:02;;;;;;;;;;;;;;;20.28;58.23;102280.25;106360;1260;61405;-83
2023/09/24 12:17:28;;;;;;;;;;;;;;;20.53;58.03;102278.51;106433;1261;61312;-83
2023/09/24 12:19:55;;;;;;;;;;;;;;;20.72;57.70;102279.39;106352;1260;74616;-83
2023/09/24 12:22:23;;;;;;;;;;;;;;;20.75;57.20;102286.20;106256;1260;125177;-83
2023/09/24 12:24:49;;;;;;;;;;;;;;;20.62;56.81;102289.48;106333;1259;72725;-83
2023/09/24 12:27:16;;;;;;;;;;;;;;;20.40;56.53;102295.86;106286;1259;124413;-83
2023/09/24 12:29:42;;;;;;;;;;;;;;;20.22;56.42;102293.92;106444;1263;61219;-84